createdAt,value
2022-12-20T00:01:22.958Z,-2.96
2022-12-20T00:03:54.168Z,-3.02
2022-12-20T00:06:21.406Z,-3.03
2022-12-20T00:08:52.690Z,-3.03
2022-12-20T00:11:19.098Z,-3.04
2022-12-20T00:13:46.550Z,-3.06
2022-12-20T00:16:16.142Z,-3.07
2022-12-20T00:18:42.695Z,-3.03
2022-12-20T00:21:11.982Z,-3.06
2022-12-20T00:23:39.169Z,-3.06
2022-12-20T00:26:07.044Z,-3.02
2022-12-20T00:28:35.449Z,-3.00
2022-12-20T00:31:04.075Z,-3.02
2022-12-20T00:33:31.081Z,-3.04
2022-12-20T00:35:58.149Z,-3.07
2022-12-20T00:38:25.460Z,-3.08
2022-12-20T00:41:01.887Z,-3.08
2022-12-20T00:43:29.938Z,-3.11
2022-12-20T00:45:56.940Z,-3.11
2022-12-20T00:48:23.383Z,-3.17
2022-12-20T00:50:50.577Z,-3.13
2022-12-20T00:53:21.154Z,-3.15
2022-12-20T00:55:50.912Z,-3.17
2022-12-20T00:58:17.267Z,-3.15
2022-12-20T01:00:43.727Z,-3.08
2022-12-20T01:03:10.379Z,-3.10
2022-12-20T01:05:37.104Z,-3.08
2022-12-20T01:08:03.987Z,-3.13
2022-12-20T01:10:30.476Z,-3.11
2022-12-20T01:12:56.977Z,-3.07
2022-12-20T01:15:23.637Z,-3.07
2022-12-20T01:17:51.510Z,-3.10
2022-12-20T01:20:17.955Z,-3.10
2022-12-20T01:22:47.652Z,-3.08
2022-12-20T01:25:14.361Z,-3.09
2022-12-20T01:27:40.781Z,-3.08
2022-12-20T01:30:07.888Z,-3.03
2022-12-20T01:32:34.302Z,-3.07
2022-12-20T01:35:00.820Z,-3.04
2022-12-20T01:37:27.220Z,-2.98
2022-12-20T01:39:53.666Z,-3.02
2022-12-20T01:42:20.100Z,-2.94
2022-12-20T01:44:46.547Z,-2.93
2022-12-20T01:47:13.652Z,-2.96
2022-12-20T01:49:44.255Z,-3.08
2022-12-20T01:52:26.434Z,-3.11
2022-12-20T01:55:07.098Z,-3.09
2022-12-20T01:57:48.057Z,-3.07
2022-12-20T02:00:16.550Z,-3.14
2022-12-20T02:02:45.824Z,-3.16
2022-12-20T02:05:14.551Z,-3.09
2022-12-20T02:07:43.985Z,-3.04
2022-12-20T02:10:11.829Z,-3.10
2022-12-20T02:12:41.399Z,-3.07
2022-12-20T02:15:49.179Z,-3.06
2022-12-20T02:18:23.190Z,-3.04
2022-12-20T02:20:52.323Z,-3.06
2022-12-20T02:23:33.980Z,-3.03
2022-12-20T02:26:18.644Z,-3.03
2022-12-20T02:29:00.277Z,-3.05
2022-12-20T02:31:32.889Z,-2.99
2022-12-20T02:34:00.505Z,-2.92
2022-12-20T02:36:27.016Z,-2.96
2022-12-20T02:38:53.710Z,-2.95
2022-12-20T02:41:24.012Z,-3.03
2022-12-20T02:44:17.742Z,-3.09
2022-12-20T02:46:45.762Z,-3.09
2022-12-20T02:49:16.395Z,-3.09
2022-12-20T02:51:46.144Z,-3.08
2022-12-20T02:54:13.732Z,-3.10
2022-12-20T02:56:50.135Z,-3.13
2022-12-20T02:59:24.663Z,-3.11
2022-12-20T03:01:55.082Z,-3.18
2022-12-20T03:04:26.868Z,-3.24
2022-12-20T03:07:00.448Z,-3.23
2022-12-20T03:09:28.171Z,-3.29
2022-12-20T03:11:54.713Z,-3.30
2022-12-20T03:14:21.783Z,-3.34
2022-12-20T03:16:48.470Z,-3.37
2022-12-20T03:19:14.949Z,-3.42
2022-12-20T03:21:41.546Z,-3.40
2022-12-20T03:24:08.234Z,-3.40
2022-12-20T03:26:34.605Z,-3.34
2022-12-20T03:29:01.037Z,-3.40
2022-12-20T03:31:27.512Z,-3.33
2022-12-20T03:33:54.342Z,-3.36
2022-12-20T03:36:23.535Z,-3.35
2022-12-20T03:38:51.340Z,-3.33
2022-12-20T03:41:17.768Z,-3.35
2022-12-20T03:43:44.203Z,-3.38
2022-12-20T03:46:10.723Z,-3.43
2022-12-20T03:48:37.073Z,-3.39
2022-12-20T03:51:03.718Z,-3.30
2022-12-20T03:53:30.564Z,-3.24
2022-12-20T03:55:57.155Z,-3.25
2022-12-20T03:58:23.724Z,-3.23
2022-12-20T04:00:50.205Z,-3.25
2022-12-20T04:03:16.930Z,-3.26
2022-12-20T04:05:43.500Z,-3.34
2022-12-20T04:08:10.079Z,-3.29
2022-12-20T04:10:56.440Z,-3.29
2022-12-20T04:13:22.807Z,-3.33
2022-12-20T04:15:49.251Z,-3.32
2022-12-20T04:18:15.685Z,-3.29
2022-12-20T04:20:42.055Z,-3.23
2022-12-20T04:23:08.513Z,-3.29
2022-12-20T04:25:34.871Z,-3.23
2022-12-20T04:28:01.265Z,-3.25
2022-12-20T04:30:27.599Z,-3.26
2022-12-20T04:32:54.717Z,-3.28
2022-12-20T04:35:21.141Z,-3.27
2022-12-20T04:37:47.557Z,-3.28
2022-12-20T04:40:13.944Z,-3.30
2022-12-20T04:42:40.479Z,-3.30
2022-12-20T04:45:07.362Z,-3.32
2022-12-20T04:47:33.768Z,-3.30
2022-12-20T04:50:00.161Z,-3.26
2022-12-20T04:52:47.944Z,-3.23
2022-12-20T04:55:15.007Z,-3.21
2022-12-20T04:57:41.416Z,-3.21
2022-12-20T05:00:08.649Z,-3.21
2022-12-20T05:02:35.130Z,-3.18
2022-12-20T05:05:01.605Z,-3.21
2022-12-20T05:07:28.097Z,-3.15
2022-12-20T05:09:54.541Z,-3.19
2022-12-20T05:12:20.958Z,-3.17
2022-12-20T05:14:47.318Z,-3.18
2022-12-20T05:17:13.687Z,-3.18
2022-12-20T05:19:40.044Z,-3.17
2022-12-20T05:22:25.058Z,-3.17
2022-12-20T05:25:09.848Z,-3.17
2022-12-20T05:27:36.203Z,-3.14
2022-12-20T05:30:02.720Z,-2.99
2022-12-20T05:32:29.263Z,-3.06
2022-12-20T05:34:55.614Z,-3.09
2022-12-20T05:37:22.088Z,-3.10
2022-12-20T05:39:48.846Z,-3.09
2022-12-20T05:42:15.181Z,-3.06
2022-12-20T05:44:41.580Z,-3.12
2022-12-20T05:47:08.155Z,-3.10
2022-12-20T05:49:34.704Z,-3.11
2022-12-20T05:52:02.542Z,-3.12
2022-12-20T05:54:29.001Z,-3.12
2022-12-20T05:56:55.364Z,-3.07
2022-12-20T05:59:21.903Z,-3.10
2022-12-20T06:01:48.361Z,-3.10
2022-12-20T06:04:14.849Z,-3.11
2022-12-20T06:06:41.359Z,-3.10
2022-12-20T06:09:07.883Z,-3.06
2022-12-20T06:11:34.360Z,-3.08
2022-12-20T06:14:00.766Z,-3.06
2022-12-20T06:16:27.273Z,-3.03
2022-12-20T06:18:53.785Z,-3.05
2022-12-20T06:21:20.147Z,-3.09
2022-12-20T06:23:46.612Z,-3.03
2022-12-20T06:26:13.095Z,-3.05
2022-12-20T06:28:45.979Z,-3.07
2022-12-20T06:31:12.461Z,-3.06
2022-12-20T06:33:39.125Z,-3.08
2022-12-20T06:36:05.867Z,-3.07
2022-12-20T06:38:32.211Z,-3.06
2022-12-20T06:40:58.588Z,-3.05
2022-12-20T06:43:25.083Z,-2.96
2022-12-20T06:45:51.480Z,-3.03
2022-12-20T06:48:17.923Z,-3.06
2022-12-20T06:50:44.280Z,-3.09
2022-12-20T06:53:10.633Z,-3.10
2022-12-20T06:55:37.078Z,-3.09
2022-12-20T06:58:04.047Z,-3.07
2022-12-20T07:00:30.428Z,-3.08
2022-12-20T07:02:57.214Z,-3.08
2022-12-20T07:05:23.710Z,-3.05
2022-12-20T07:07:50.482Z,-3.06
2022-12-20T07:10:17.220Z,-3.06
2022-12-20T07:15:30.384Z,-2.98
2022-12-20T07:17:56.726Z,-2.93
2022-12-20T07:20:23.178Z,-2.96
2022-12-20T07:22:49.698Z,-2.90
2022-12-20T07:25:16.121Z,-2.93
2022-12-20T07:27:42.472Z,-2.96
2022-12-20T07:30:10.401Z,-2.94
2022-12-20T07:32:37.316Z,-2.92
2022-12-20T07:35:03.968Z,-2.87
2022-12-20T07:37:30.531Z,-2.88
2022-12-20T07:39:56.906Z,-2.82
2022-12-20T07:42:23.544Z,-2.72
2022-12-20T07:44:50.168Z,-2.74
2022-12-20T07:47:16.675Z,-2.65
2022-12-20T07:49:43.078Z,-2.61
2022-12-20T07:52:12.308Z,-2.60
2022-12-20T07:54:45.938Z,-2.63
2022-12-20T07:57:18.085Z,-2.67
2022-12-20T07:59:51.450Z,-2.66
2022-12-20T08:02:25.535Z,-2.67
2022-12-20T08:04:54.351Z,-2.69
2022-12-20T08:07:21.011Z,-2.69
2022-12-20T08:09:47.785Z,-2.62
2022-12-20T08:12:17.686Z,-2.64
2022-12-20T08:14:44.916Z,-2.63
2022-12-20T08:17:11.813Z,-2.62
2022-12-20T08:19:38.743Z,-2.64
2022-12-20T08:22:06.291Z,-2.62
2022-12-20T08:24:33.580Z,-2.59
2022-12-20T08:26:59.995Z,-2.59
2022-12-20T08:29:26.425Z,-2.55
2022-12-20T08:31:52.782Z,-2.54
2022-12-20T08:34:19.232Z,-2.53
2022-12-20T08:36:45.646Z,-2.44
2022-12-20T08:39:12.090Z,-2.43
2022-12-20T08:41:39.087Z,-2.42
2022-12-20T08:44:06.487Z,-2.37
2022-12-20T08:46:33.567Z,-2.32
2022-12-20T08:49:00.144Z,-2.32
2022-12-20T08:51:26.618Z,-2.25
2022-12-20T08:53:53.043Z,-2.25
2022-12-20T08:56:19.935Z,-2.22
2022-12-20T08:58:46.935Z,-2.23
2022-12-20T09:01:16.257Z,-2.22
2022-12-20T09:03:43.870Z,-2.18
2022-12-20T09:06:15.619Z,-2.16
2022-12-20T09:08:42.451Z,-2.15
2022-12-20T09:11:23.966Z,-2.02
2022-12-20T09:13:52.985Z,-2.04
2022-12-20T09:16:22.099Z,-2.07
2022-12-20T09:18:49.882Z,-2.00
2022-12-20T09:21:16.499Z,-1.98
2022-12-20T09:23:42.962Z,-2.01
2022-12-20T09:26:14.667Z,-1.97
2022-12-20T09:28:41.819Z,-1.98
2022-12-20T09:31:14.880Z,-1.98
2022-12-20T09:33:42.148Z,-1.93
2022-12-20T09:36:13.423Z,-1.91
2022-12-20T09:38:39.954Z,-1.85
2022-12-20T09:41:09.176Z,-1.80
2022-12-20T09:43:37.402Z,-1.78
2022-12-20T09:46:04.379Z,-1.78
2022-12-20T09:48:35.541Z,-1.75
2022-12-20T09:51:10.887Z,-1.74
2022-12-20T09:53:42.540Z,-1.71
2022-12-20T09:56:47.276Z,-1.58
2022-12-20T09:59:17.796Z,-1.60
2022-12-20T10:01:50.341Z,-1.50
2022-12-20T10:04:27.356Z,-1.53
2022-12-20T10:06:56.781Z,-1.50
2022-12-20T10:09:29.589Z,-1.51
2022-12-20T10:12:27.870Z,-1.49
2022-12-20T10:15:04.529Z,-1.48
2022-12-20T10:17:52.881Z,-1.42
2022-12-20T10:20:40.970Z,-1.43
2022-12-20T10:23:38.534Z,-1.44
2022-12-20T10:26:10.679Z,-1.46
2022-12-20T10:28:37.987Z,-1.48
2022-12-20T10:31:12.715Z,-1.42
2022-12-20T10:33:39.981Z,-1.40
2022-12-20T10:36:20.126Z,-1.35
2022-12-20T10:38:49.724Z,-1.25
2022-12-20T10:41:23.256Z,-1.23
2022-12-20T10:44:19.289Z,-1.20
2022-12-20T10:46:50.632Z,-1.12
2022-12-20T10:49:23.295Z,-1.16
2022-12-20T10:51:54.594Z,-1.10
2022-12-20T10:54:28.471Z,-1.08
2022-12-20T10:57:01.916Z,-1.05
2022-12-20T10:59:39.483Z,-0.98
2022-12-20T11:02:34.665Z,-0.90
2022-12-20T11:05:11.323Z,-0.87
2022-12-20T11:08:24.798Z,-0.97
2022-12-20T11:10:37.733Z,-0.95
2022-12-20T11:13:04.535Z,-0.91
2022-12-20T11:15:34.708Z,-0.88
2022-12-20T11:18:23.512Z,-0.86
2022-12-20T11:21:18.538Z,-0.85
2022-12-20T11:24:00.059Z,-0.74
2022-12-20T11:26:40.798Z,-0.70
2022-12-20T11:29:18.790Z,-0.70
2022-12-20T11:32:17.443Z,-0.74
2022-12-20T11:34:55.605Z,-0.69
2022-12-20T11:37:24.652Z,-0.62
2022-12-20T11:40:10.844Z,-0.72
2022-12-20T11:43:04.312Z,-0.73
2022-12-20T11:45:47.795Z,-0.81
2022-12-20T11:48:16.958Z,-0.75
2022-12-20T11:51:02.942Z,-0.66
2022-12-20T11:53:41.753Z,-0.70
2022-12-20T11:56:19.836Z,-0.78
2022-12-20T11:58:54.383Z,-0.79
2022-12-20T12:01:26.172Z,-0.74
2022-12-20T12:04:06.480Z,-0.71
2022-12-20T12:06:38.670Z,-0.58
2022-12-20T12:09:07.734Z,-0.48
2022-12-20T12:12:06.064Z,-0.52
2022-12-20T12:14:38.652Z,-0.52
2022-12-20T12:17:17.201Z,-0.50
2022-12-20T12:19:48.289Z,-0.53
2022-12-20T12:22:23.066Z,-0.59
2022-12-20T12:24:54.357Z,-0.53
2022-12-20T12:27:26.449Z,-0.53
2022-12-20T12:29:56.324Z,-0.48
2022-12-20T12:32:30.575Z,-0.49
2022-12-20T12:35:13.915Z,-0.58
2022-12-20T12:38:14.567Z,-0.56
2022-12-20T12:40:59.083Z,-0.50
2022-12-20T12:43:37.059Z,-0.52
2022-12-20T12:46:14.240Z,-0.45
2022-12-20T12:48:55.861Z,-0.46
2022-12-20T12:51:38.620Z,-0.54
2022-12-20T12:54:18.244Z,-0.54
2022-12-20T12:56:47.484Z,-0.54
2022-12-20T12:59:29.332Z,-0.48
2022-12-20T13:02:16.324Z,-0.52
2022-12-20T13:05:04.707Z,-0.51
2022-12-20T13:07:35.023Z,-0.55
2022-12-20T13:10:25.064Z,-0.53
2022-12-20T13:12:52.425Z,-0.51
2022-12-20T13:15:21.796Z,-0.51
2022-12-20T13:17:52.215Z,-0.53
2022-12-20T13:20:26.189Z,-0.53
2022-12-20T13:23:07.625Z,-0.52
2022-12-20T13:25:37.045Z,-0.50
2022-12-20T13:28:18.839Z,-0.48
2022-12-20T13:30:46.988Z,-0.46
2022-12-20T13:33:24.726Z,-0.46
2022-12-20T13:36:02.992Z,-0.43
2022-12-20T13:38:47.703Z,-0.48
2022-12-20T13:41:50.963Z,-0.45
2022-12-20T13:44:18.082Z,-0.48
2022-12-20T13:47:15.388Z,-0.49
2022-12-20T13:49:43.852Z,-0.42
2022-12-20T13:52:23.133Z,-0.43
2022-12-20T13:54:54.620Z,-0.52
2022-12-20T13:57:42.417Z,-0.52
2022-12-20T14:00:22.694Z,-0.53
2022-12-20T14:02:49.505Z,-0.51
2022-12-20T14:05:29.172Z,-0.54
2022-12-20T14:08:09.198Z,-0.60
2022-12-20T14:10:36.420Z,-0.63
2022-12-20T14:13:03.329Z,-0.69
2022-12-20T14:15:35.314Z,-0.81
2022-12-20T14:18:27.186Z,-0.84
2022-12-20T14:21:05.252Z,-0.95
2022-12-20T14:23:37.565Z,-0.93
2022-12-20T14:26:04.332Z,-0.92
2022-12-20T14:28:37.033Z,-0.92
2022-12-20T14:31:05.300Z,-0.95
2022-12-20T14:33:38.581Z,-0.87
2022-12-20T14:36:16.826Z,-0.72
2022-12-20T14:38:48.771Z,-0.71
2022-12-20T14:41:36.473Z,-0.72
2022-12-20T14:44:23.762Z,-0.74
2022-12-20T14:46:56.170Z,-0.69
2022-12-20T14:49:27.074Z,-0.76
2022-12-20T14:52:24.474Z,-0.78
2022-12-20T14:55:08.284Z,-0.80
2022-12-20T14:57:36.077Z,-0.80
2022-12-20T15:00:17.825Z,-0.87
2022-12-20T15:02:50.777Z,-0.87
2022-12-20T15:05:38.749Z,-0.82
2022-12-20T15:08:27.346Z,-0.80
2022-12-20T15:11:08.848Z,-0.78
2022-12-20T15:13:42.023Z,-0.86
2022-12-20T15:16:20.009Z,-0.87
2022-12-20T15:18:47.498Z,-0.88
2022-12-20T15:21:16.794Z,-0.91
2022-12-20T15:23:47.709Z,-0.95
2022-12-20T15:26:19.092Z,-0.93
2022-12-20T15:28:45.717Z,-0.98
2022-12-20T15:31:14.249Z,-1.04
2022-12-20T15:33:42.432Z,-1.01
2022-12-20T15:36:23.183Z,-1.05
2022-12-20T15:41:37.477Z,-1.09
2022-12-20T15:44:07.431Z,-1.11
2022-12-20T15:46:33.955Z,-1.06
2022-12-20T15:49:00.455Z,-1.09
2022-12-20T15:51:31.618Z,-1.14
2022-12-20T15:54:00.387Z,-1.14
2022-12-20T15:56:27.846Z,-1.12
2022-12-20T15:58:54.395Z,-1.12
2022-12-20T16:01:40.297Z,-1.13
2022-12-20T16:04:13.477Z,-1.14
2022-12-20T16:06:39.933Z,-1.11
2022-12-20T16:09:06.394Z,-1.14
2022-12-20T16:11:32.791Z,-1.23
2022-12-20T16:13:59.933Z,-1.13
2022-12-20T16:16:29.876Z,-1.15
2022-12-20T16:18:56.562Z,-1.16
2022-12-20T16:21:30.685Z,-1.19
2022-12-20T16:23:57.343Z,-1.20
2022-12-20T16:26:26.164Z,-1.17
2022-12-20T16:28:54.211Z,-1.16
2022-12-20T16:31:25.245Z,-1.19
2022-12-20T16:33:52.658Z,-1.20
2022-12-20T16:36:19.125Z,-1.18
2022-12-20T16:38:45.597Z,-1.15
2022-12-20T16:41:18.120Z,-1.14
2022-12-20T16:43:48.251Z,-1.09
2022-12-20T16:46:18.034Z,-1.06
2022-12-20T16:48:45.423Z,-1.10
2022-12-20T16:51:33.823Z,-1.02
2022-12-20T16:54:21.911Z,-1.04
2022-12-20T16:56:55.921Z,-1.04
2022-12-20T16:59:24.258Z,-1.09
2022-12-20T17:01:54.577Z,-1.11
2022-12-20T17:04:24.321Z,-1.10
2022-12-20T17:06:50.917Z,-1.07
2022-12-20T17:12:04.205Z,-1.07
2022-12-20T17:14:30.939Z,-1.07
2022-12-20T17:16:57.422Z,-1.09
2022-12-20T17:19:23.871Z,-1.08
2022-12-20T17:24:34.198Z,-1.10
2022-12-20T17:27:00.813Z,-1.10
2022-12-20T17:29:27.234Z,-1.05
2022-12-20T17:31:54.723Z,-1.08
2022-12-20T17:34:24.956Z,-1.09
2022-12-20T17:36:54.477Z,-1.09
2022-12-20T17:39:23.252Z,-1.12
2022-12-20T17:41:50.800Z,-1.09
2022-12-20T17:44:25.973Z,-1.13
2022-12-20T17:46:53.834Z,-1.12
2022-12-20T17:49:21.098Z,-1.07
2022-12-20T17:51:47.561Z,-1.09
2022-12-20T17:54:24.310Z,-1.12
2022-12-20T17:56:50.833Z,-1.19
2022-12-20T17:59:17.850Z,-1.19
2022-12-20T18:01:46.129Z,-1.23
2022-12-20T18:04:14.731Z,-1.19
2022-12-20T18:06:42.826Z,-1.24
2022-12-20T18:09:20.622Z,-1.26
2022-12-20T18:11:47.378Z,-1.24
2022-12-20T18:14:14.306Z,-1.26
2022-12-20T18:16:40.964Z,-1.27
2022-12-20T18:19:14.273Z,-1.26
2022-12-20T18:21:41.629Z,-1.19
2022-12-20T18:24:11.481Z,-1.17
2022-12-20T18:26:37.877Z,-1.26
2022-12-20T18:29:04.317Z,-1.30
2022-12-20T18:31:33.831Z,-1.32
2022-12-20T18:34:01.571Z,-1.28
2022-12-20T18:36:30.265Z,-1.31
2022-12-20T18:38:59.339Z,-1.33
2022-12-20T18:41:28.353Z,-1.38
2022-12-20T18:43:58.910Z,-1.30
2022-12-20T18:46:25.975Z,-1.23
2022-12-20T18:48:53.940Z,-1.20
2022-12-20T18:51:23.443Z,-1.23
2022-12-20T18:53:51.495Z,-1.25
2022-12-20T18:56:25.043Z,-1.26
2022-12-20T18:58:51.884Z,-1.27
2022-12-20T19:01:22.004Z,-1.30
2022-12-20T19:03:50.597Z,-1.26
2022-12-20T19:06:17.754Z,-1.16
2022-12-20T19:08:44.237Z,-1.16
2022-12-20T19:11:13.710Z,-1.14
2022-12-20T19:13:41.603Z,-1.11
2022-12-20T19:16:12.919Z,-1.17
2022-12-20T19:18:39.890Z,-1.13
2022-12-20T19:21:08.429Z,-1.16
2022-12-20T19:23:35.790Z,-1.17
2022-12-20T19:26:05.445Z,-1.16
2022-12-20T19:28:33.413Z,-1.19
2022-12-20T19:31:09.952Z,-1.22
2022-12-20T19:33:44.612Z,-1.20
2022-12-20T19:36:16.249Z,-1.24
2022-12-20T19:38:44.651Z,-1.19
2022-12-20T19:41:11.792Z,-1.26
2022-12-20T19:43:38.249Z,-1.30
2022-12-20T19:46:05.006Z,-1.31
2022-12-20T19:48:35.468Z,-1.36
2022-12-20T19:51:06.571Z,-1.36
2022-12-20T19:53:33.185Z,-1.35
2022-12-20T19:55:59.667Z,-1.38
2022-12-20T19:58:26.153Z,-1.42
2022-12-20T20:00:53.176Z,-1.42
2022-12-20T20:03:20.400Z,-1.42
2022-12-20T20:05:47.809Z,-1.40
2022-12-20T20:08:15.217Z,-1.45
2022-12-20T20:10:44.822Z,-1.45
2022-12-20T20:13:11.814Z,-1.45
2022-12-20T20:15:38.469Z,-1.47
2022-12-20T20:18:05.047Z,-1.49
2022-12-20T20:20:32.820Z,-1.45
2022-12-20T20:22:59.256Z,-1.52
2022-12-20T20:25:26.274Z,-1.53
2022-12-20T20:27:52.767Z,-1.48
2022-12-20T20:30:20.254Z,-1.49
2022-12-20T20:32:46.993Z,-1.51
2022-12-20T20:35:13.595Z,-1.44
2022-12-20T20:37:39.934Z,-1.41
2022-12-20T20:40:07.124Z,-1.39
2022-12-20T20:42:33.604Z,-1.44
2022-12-20T20:45:01.139Z,-1.45
2022-12-20T20:47:27.485Z,-1.45
2022-12-20T20:49:54.048Z,-1.52
2022-12-20T20:52:20.465Z,-1.52
2022-12-20T20:54:46.902Z,-1.59
2022-12-20T20:57:13.403Z,-1.61
2022-12-20T20:59:39.907Z,-1.61
2022-12-20T21:02:06.815Z,-1.61
2022-12-20T21:04:33.316Z,-1.59
2022-12-20T21:06:59.883Z,-1.61
2022-12-20T21:09:26.269Z,-1.68
2022-12-20T21:11:52.820Z,-1.69
2022-12-20T21:14:30.599Z,-1.71
2022-12-20T21:17:05.737Z,-1.73
2022-12-20T21:19:32.183Z,-1.67
2022-12-20T21:21:58.707Z,-1.68
2022-12-20T21:24:25.277Z,-1.71
2022-12-20T21:26:53.416Z,-1.73
2022-12-20T21:29:21.521Z,-1.57
2022-12-20T21:31:48.106Z,-1.55
2022-12-20T21:34:14.645Z,-1.44
2022-12-20T21:36:41.066Z,-1.49
2022-12-20T21:39:07.514Z,-1.48
2022-12-20T21:41:33.929Z,-1.52
2022-12-20T21:44:01.079Z,-1.60
2022-12-20T21:46:29.907Z,-1.60
2022-12-20T21:48:56.383Z,-1.65
2022-12-20T21:51:24.708Z,-1.64
2022-12-20T21:53:53.816Z,-1.65
2022-12-20T21:56:21.686Z,-1.67
2022-12-20T21:58:48.546Z,-1.67
2022-12-20T22:01:18.994Z,-1.62
2022-12-20T22:03:46.324Z,-1.65
2022-12-20T22:06:13.776Z,-1.63
2022-12-20T22:08:40.344Z,-1.65
2022-12-20T22:11:09.781Z,-1.71
2022-12-20T22:13:41.470Z,-1.68
2022-12-20T22:16:20.793Z,-1.56
2022-12-20T22:18:51.371Z,-1.59
2022-12-20T22:21:19.939Z,-1.54
2022-12-20T22:23:46.789Z,-1.48
2022-12-20T22:26:15.480Z,-1.43
2022-12-20T22:28:48.143Z,-1.44
2022-12-20T22:31:14.774Z,-1.46
2022-12-20T22:33:41.652Z,-1.52
2022-12-20T22:36:09.324Z,-1.55
2022-12-20T22:38:35.773Z,-1.53
2022-12-20T22:41:10.899Z,-1.54
2022-12-20T22:43:38.556Z,-1.53
2022-12-20T22:46:05.204Z,-1.59
2022-12-20T22:48:31.949Z,-1.61
2022-12-20T22:51:16.553Z,-1.59
2022-12-20T22:53:43.533Z,-1.52
2022-12-20T22:56:10.660Z,-1.53
2022-12-20T22:58:39.526Z,-1.52
2022-12-20T23:01:08.654Z,-1.48
2022-12-20T23:03:37.323Z,-1.57
2022-12-20T23:06:06.918Z,-1.62
2022-12-20T23:08:36.164Z,-1.61
2022-12-20T23:11:22.703Z,-1.63
2022-12-20T23:14:07.472Z,-1.65
2022-12-20T23:16:39.833Z,-1.60
2022-12-20T23:19:06.376Z,-1.58
2022-12-20T23:21:51.430Z,-1.60
2022-12-20T23:24:17.777Z,-1.53
2022-12-20T23:26:44.325Z,-1.50
2022-12-20T23:29:15.877Z,-1.56
2022-12-20T23:31:42.498Z,-1.54
2022-12-20T23:34:09.018Z,-1.53
2022-12-20T23:36:35.632Z,-1.54
2022-12-20T23:39:02.461Z,-1.55
2022-12-20T23:41:29.321Z,-1.57
2022-12-20T23:43:56.166Z,-1.55
2022-12-20T23:46:23.388Z,-1.57
2022-12-20T23:48:53.118Z,-1.54
2022-12-20T23:51:20.575Z,-1.47
2022-12-20T23:53:47.252Z,-1.51
2022-12-20T23:56:18.942Z,-1.55
2022-12-20T23:58:49.563Z,-1.49
